Time;durP1;ratioP1;P1;durP2;ratioP2;P2;SDS_P1;SDS_P2;PMS_P1;PMS_P2;Temp;Humidity;BMP_temperature;BMP_pressure;BME280_temperature;BME280_humidity;BME280_pressure;Samples;Min_cycle;Max_cycle;Signal;HPM_P1;HPM_P2
2021/12/26 00:01:17;;;;;;;42.53;27.70;;;2.60;90.30;;;;;;5012391;28;20022;-84
2021/12/26 00:03:44;;;;;;;46.92;27.27;;;2.50;90.30;;;;;;5007327;28;20062;-79
2021/12/26 00:06:17;;;;;;;40.03;26.85;;;2.60;90.20;;;;;;5007356;28;20142;-82
2021/12/26 00:08:46;;;;;;;42.03;27.00;;;2.50;90.10;;;;;;5016568;28;20073;-82
2021/12/26 00:11:14;;;;;;;41.78;27.55;;;2.50;90.20;;;;;;5016944;28;20038;-78
2021/12/26 00:13:43;;;;;;;42.22;27.63;;;2.50;90.40;;;;;;5021846;28;20030;-85
2021/12/26 00:16:11;;;;;;;40.30;25.15;;;2.50;90.10;;;;;;5012778;28;20139;-86
2021/12/26 00:18:45;;;;;;;39.22;26.98;;;2.50;90.00;;;;;;5012874;28;20014;-84
2021/12/26 00:21:16;;;;;;;44.28;26.35;;;2.50;90.00;;;;;;5013012;28;20018;-85
2021/12/26 00:23:45;;;;;;;39.72;27.50;;;2.50;90.00;;;;;;5013454;28;20065;-81
2021/12/26 00:26:12;;;;;;;41.35;27.85;;;2.40;89.70;;;;;;5019053;28;20022;-86
2021/12/26 00:28:41;;;;;;;39.00;26.63;;;2.50;89.70;;;;;;5015669;28;20026;-86
2021/12/26 00:31:08;;;;;;;38.58;26.45;;;2.50;89.80;;;;;;5014373;28;20042;-80
2021/12/26 00:33:36;;;;;;;38.47;25.35;;;2.50;89.80;;;;;;5014142;28;20025;-82
2021/12/26 00:36:05;;;;;;;37.70;25.92;;;2.50;89.50;;;;;;5012664;28;20054;-77
2021/12/26 00:38:32;;;;;;;37.28;25.60;;;2.40;89.40;;;;;;5009508;28;20034;-85
2021/12/26 00:41:00;;;;;;;37.78;25.73;;;2.40;89.60;;;;;;5012492;28;20030;-85
2021/12/26 00:43:29;;;;;;;39.38;25.02;;;2.50;89.20;;;;;;5018632;28;20101;-82
2021/12/26 00:45:57;;;;;;;39.63;25.42;;;2.50;89.20;;;;;;5020127;28;20042;-87
2021/12/26 00:48:25;;;;;;;40.42;26.60;;;2.50;89.10;;;;;;5012079;28;20078;-78
2021/12/26 00:50:53;;;;;;;41.42;26.35;;;2.50;89.20;;;;;;5013447;28;20018;-86
2021/12/26 00:53:20;;;;;;;36.90;25.45;;;2.40;89.30;;;;;;5016160;28;20081;-86
2021/12/26 00:55:47;;;;;;;40.53;27.08;;;2.40;89.40;;;;;;5034169;28;20069;-83
2021/12/26 00:58:12;;;;;;;39.42;26.70;;;2.50;89.50;;;;;;5027500;28;20025;-84
2021/12/26 01:00:43;;;;;;;37.30;25.08;;;2.50;89.50;;;;;;5025862;28;20296;-77
2021/12/26 01:03:10;;;;;;;39.20;26.38;;;2.40;89.30;;;;;;5017696;28;20042;-80
2021/12/26 01:05:38;;;;;;;37.47;25.38;;;2.50;89.40;;;;;;5024710;28;20484;-85
2021/12/26 01:08:05;;;;;;;37.00;24.38;;;2.50;89.40;;;;;;5014975;28;20049;-85
2021/12/26 01:10:36;;;;;;;34.47;23.48;;;2.50;89.50;;;;;;5017738;28;20026;-78
2021/12/26 01:13:14;;;;;;;37.63;24.08;;;2.60;89.60;;;;;;5023508;28;20032;-80
2021/12/26 01:15:41;;;;;;;37.08;23.42;;;2.60;89.40;;;;;;5014234;28;20094;-82
2021/12/26 01:18:07;;;;;;;38.40;25.45;;;2.60;89.40;;;;;;5013770;28;20022;-87
2021/12/26 01:23:08;;;;;;;34.80;24.27;;;2.60;89.00;;;;;;5015640;28;20077;-84
2021/12/26 01:25:34;;;;;;;36.58;24.33;;;2.50;89.10;;;;;;5017765;28;20010;-80
2021/12/26 01:28:00;;;;;;;36.17;24.73;;;2.60;89.20;;;;;;5015812;28;20026;-85
2021/12/26 01:30:26;;;;;;;35.03;21.95;;;2.60;89.20;;;;;;5016071;28;20088;-85
2021/12/26 01:32:52;;;;;;;33.22;22.92;;;2.60;89.10;;;;;;5024810;28;20026;-84
2021/12/26 01:35:17;;;;;;;34.45;22.27;;;2.50;88.90;;;;;;5019570;28;20018;-87
2021/12/26 01:37:43;;;;;;;32.75;22.17;;;2.50;88.70;;;;;;5026615;28;20030;-86
2021/12/26 01:40:09;;;;;;;34.53;21.70;;;2.50;88.80;;;;;;5013724;28;20026;-85
2021/12/26 01:42:35;;;;;;;35.65;24.45;;;2.50;88.70;;;;;;5028965;28;20026;-82
2021/12/26 01:45:02;;;;;;;33.00;22.73;;;2.50;88.40;;;;;;5041369;28;20050;-81
2021/12/26 01:47:27;;;;;;;32.78;22.33;;;2.40;88.60;;;;;;5022747;28;20082;-83
2021/12/26 01:49:53;;;;;;;35.05;22.65;;;2.50;88.80;;;;;;5038076;28;20041;-85
2021/12/26 01:52:19;;;;;;;32.88;22.88;;;2.50;88.80;;;;;;5034495;28;20019;-87
2021/12/26 01:54:48;;;;;;;38.03;23.00;;;2.50;88.80;;;;;;5030662;28;20090;-85
2021/12/26 01:57:19;;;;;;;33.40;23.45;;;2.50;88.70;;;;;;5013993;28;20026;-83
2021/12/26 01:59:46;;;;;;;32.30;21.75;;;2.60;88.60;;;;;;5022916;28;20025;-83
2021/12/26 02:02:13;;;;;;;35.70;22.35;;;2.50;88.50;;;;;;5017071;28;20077;-86
2021/12/26 02:04:41;;;;;;;33.92;23.10;;;2.50;88.70;;;;;;5021979;28;20042;-85
2021/12/26 02:07:10;;;;;;;33.42;22.00;;;2.50;88.70;;;;;;5010250;28;20093;-80
2021/12/26 02:09:36;;;;;;;32.35;21.90;;;2.60;88.80;;;;;;5016188;28;20057;-83
2021/12/26 02:12:04;;;;;;;31.67;22.60;;;2.50;88.70;;;;;;5029092;28;20026;-82
2021/12/26 02:14:30;;;;;;;30.92;20.35;;;2.60;88.80;;;;;;5021965;28;20036;-79
2021/12/26 02:16:56;;;;;;;32.10;21.27;;;2.50;88.50;;;;;;5015292;28;20018;-83
2021/12/26 02:19:22;;;;;;;31.33;22.58;;;2.50;88.70;;;;;;5016653;28;20018;-87
2021/12/26 02:22:11;;;;;;;32.83;22.25;;;2.50;88.70;;;;;;5024235;28;20086;-86
2021/12/26 02:27:33;;;;;;;31.17;21.27;;;2.50;88.80;;;;;;5012708;28;20022;-83
2021/12/26 02:30:08;;;;;;;31.02;21.67;;;2.60;88.80;;;;;;5023668;28;20021;-86
2021/12/26 02:32:34;;;;;;;32.17;21.67;;;2.60;88.60;;;;;;5019024;28;20041;-77
2021/12/26 02:35:00;;;;;;;33.35;22.52;;;2.60;88.60;;;;;;5021161;28;20139;-85
2021/12/26 02:37:27;;;;;;;33.28;22.40;;;2.60;88.20;;;;;;5015920;28;20038;-85
2021/12/26 02:39:52;;;;;;;33.03;21.98;;;2.60;88.40;;;;;;5026081;28;20025;-84
2021/12/26 02:42:20;;;;;;;31.00;21.75;;;2.50;88.10;;;;;;5021590;28;20103;-86
2021/12/26 02:44:46;;;;;;;31.02;21.23;;;2.50;88.40;;;;;;5034258;28;20035;-83
2021/12/26 02:47:12;;;;;;;33.53;21.02;;;2.50;88.50;;;;;;5015216;28;20018;-79
2021/12/26 02:49:38;;;;;;;30.90;20.70;;;2.50;88.40;;;;;;5019653;28;20018;-86
2021/12/26 02:52:04;;;;;;;30.52;21.20;;;2.50;88.50;;;;;;5019851;28;20022;-85
2021/12/26 02:54:30;;;;;;;32.80;22.00;;;2.50;88.40;;;;;;5023048;28;20064;-87
2021/12/26 02:56:56;;;;;;;29.63;20.67;;;2.40;88.40;;;;;;5043396;28;20045;-81
2021/12/26 02:59:21;;;;;;;31.88;21.10;;;2.50;88.60;;;;;;5027765;28;20042;-86
2021/12/26 03:01:47;;;;;;;30.52;22.05;;;2.50;88.60;;;;;;5022192;28;20320;-82
2021/12/26 03:04:13;;;;;;;32.95;21.67;;;2.40;88.40;;;;;;5014824;28;20101;-87
2021/12/26 03:09:05;;;;;;;34.47;22.02;;;2.40;88.90;;;;;;5022493;28;20010;-86
2021/12/26 03:11:31;;;;;;;33.92;23.27;;;2.50;88.90;;;;;;5030361;28;20018;-87
2021/12/26 03:13:57;;;;;;;33.15;22.50;;;2.50;88.80;;;;;;5020839;28;20025;-84
2021/12/26 03:16:23;;;;;;;34.75;23.50;;;2.50;88.80;;;;;;5018101;28;20046;-87
2021/12/26 03:18:49;;;;;;;34.67;22.58;;;2.50;88.80;;;;;;5024620;28;20026;-79
2021/12/26 03:21:14;;;;;;;33.83;24.55;;;2.50;89.00;;;;;;5018317;28;20042;-87
2021/12/26 03:23:40;;;;;;;38.40;25.90;;;2.40;89.10;;;;;;5015315;28;20038;-84
2021/12/26 03:26:07;;;;;;;36.90;24.38;;;2.40;89.10;;;;;;5025429;28;20026;-86
2021/12/26 03:28:33;;;;;;;37.92;25.25;;;2.40;89.10;;;;;;5028097;28;20010;-78
2021/12/26 03:30:59;;;;;;;38.15;25.83;;;2.40;89.30;;;;;;5019034;28;20031;-81
2021/12/26 03:33:26;;;;;;;35.40;26.08;;;2.40;89.40;;;;;;5016507;28;20069;-87
2021/12/26 03:35:52;;;;;;;39.78;27.33;;;2.40;89.40;;;;;;5023398;28;20022;-86
2021/12/26 03:38:21;;;;;;;35.80;25.55;;;2.30;89.50;;;;;;5021072;28;20010;-87
2021/12/26 03:40:48;;;;;;;37.03;25.35;;;2.30;89.70;;;;;;5015158;28;20011;-84
2021/12/26 03:43:14;;;;;;;38.97;26.98;;;2.30;89.70;;;;;;5009305;28;20036;-81
2021/12/26 03:45:41;;;;;;;39.72;26.77;;;2.30;89.70;;;;;;5018317;28;20033;-86
2021/12/26 03:48:07;;;;;;;35.67;24.90;;;2.40;89.90;;;;;;5017242;28;20034;-81
2021/12/26 03:50:34;;;;;;;36.83;25.60;;;2.40;90.00;;;;;;5028242;28;20053;-82
2021/12/26 03:53:02;;;;;;;39.10;26.38;;;2.40;89.90;;;;;;5019629;28;20033;-86
2021/12/26 03:55:28;;;;;;;44.63;30.02;;;2.50;90.00;;;;;;5015309;28;20042;-88
2021/12/26 03:57:55;;;;;;;50.28;34.42;;;2.50;89.90;;;;;;5023406;28;20034;-78
2021/12/26 04:00:22;;;;;;;49.50;38.22;;;2.50;89.80;;;;;;5017078;28;20034;-81
2021/12/26 04:02:49;;;;;;;59.78;40.90;;;2.50;89.70;;;;;;5010879;28;20025;-88
2021/12/26 04:05:15;;;;;;;58.60;43.97;;;2.50;89.70;;;;;;5014725;28;20006;-78
2021/12/26 04:07:42;;;;;;;56.25;42.60;;;2.50;89.70;;;;;;5015058;28;20034;-78
2021/12/26 04:10:09;;;;;;;57.95;42.95;;;2.50;90.00;;;;;;5021078;28;20084;-85
2021/12/26 04:12:37;;;;;;;57.17;43.47;;;2.60;90.10;;;;;;5021050;28;20078;-84
2021/12/26 04:15:07;;;;;;;57.95;41.97;;;2.60;89.90;;;;;;5020291;28;20050;-85
2021/12/26 04:17:33;;;;;;;61.30;45.42;;;2.50;89.60;;;;;;5014297;28;20029;-85
2021/12/26 04:19:59;;;;;;;60.60;43.28;;;2.50;89.60;;;;;;5030516;28;20014;-87
2021/12/26 04:22:26;;;;;;;61.38;42.80;;;2.40;89.50;;;;;;5018823;28;20118;-79
2021/12/26 04:24:51;;;;;;;59.70;42.67;;;2.40;89.70;;;;;;5016346;28;20061;-82
2021/12/26 04:27:17;;;;;;;60.13;42.33;;;2.50;89.90;;;;;;5018568;28;20014;-85
2021/12/26 04:29:42;;;;;;;60.92;43.50;;;2.50;90.00;;;;;;5025605;28;20017;-83
2021/12/26 04:32:08;;;;;;;61.53;44.53;;;2.50;90.10;;;;;;5013208;28;20018;-85
2021/12/26 04:34:34;;;;;;;57.03;42.67;;;2.50;89.90;;;;;;5026282;28;20102;-88
2021/12/26 04:37:00;;;;;;;54.00;39.58;;;2.50;89.90;;;;;;5032625;28;20021;-87
2021/12/26 04:39:25;;;;;;;55.28;40.28;;;2.50;90.00;;;;;;5019143;28;20287;-79
2021/12/26 04:41:52;;;;;;;55.17;38.30;;;2.50;90.00;;;;;;5019657;28;20042;-83
2021/12/26 04:44:18;;;;;;;54.65;37.53;;;2.60;90.00;;;;;;5013947;28;20099;-84
2021/12/26 04:46:44;;;;;;;55.78;36.97;;;2.60;90.00;;;;;;5022414;28;20030;-85
2021/12/26 04:49:09;;;;;;;51.00;38.70;;;2.60;90.00;;;;;;5021643;28;20033;-84
2021/12/26 04:51:35;;;;;;;54.63;37.42;;;2.60;90.00;;;;;;5033895;28;20018;-89
2021/12/26 04:54:01;;;;;;;52.75;36.85;;;2.60;90.00;;;;;;5016131;28;20045;-81
2021/12/26 04:56:27;;;;;;;53.95;37.75;;;2.60;90.00;;;;;;5044509;28;20037;-88
2021/12/26 04:58:53;;;;;;;52.90;35.05;;;2.60;90.10;;;;;;5015129;28;20014;-84
2021/12/26 05:01:18;;;;;;;49.92;36.75;;;2.60;90.10;;;;;;5012324;28;20019;-87
2021/12/26 05:03:44;;;;;;;49.33;34.38;;;2.60;90.10;;;;;;5014095;28;20044;-84
2021/12/26 05:06:10;;;;;;;46.22;32.75;;;2.70;90.10;;;;;;5018836;28;20081;-87
2021/12/26 05:08:36;;;;;;;48.25;33.58;;;2.70;90.00;;;;;;5020449;28;20049;-89
2021/12/26 05:11:02;;;;;;;47.72;35.53;;;2.70;90.00;;;;;;5040218;28;20023;-80
2021/12/26 05:13:27;;;;;;;49.45;32.22;;;2.70;90.10;;;;;;5015203;28;20038;-88
2021/12/26 05:15:53;;;;;;;45.42;33.40;;;2.70;90.10;;;;;;5029632;28;20048;-80
2021/12/26 05:18:19;;;;;;;48.50;32.05;;;2.70;90.20;;;;;;5015389;28;20041;-87
2021/12/26 05:20:45;;;;;;;49.55;33.20;;;2.70;90.20;;;;;;5033439;28;20014;-82
2021/12/26 05:23:11;;;;;;;46.38;31.52;;;2.70;90.10;;;;;;5019347;28;20059;-88
2021/12/26 05:25:37;;;;;;;42.75;30.83;;;2.80;90.20;;;;;;5015982;28;20015;-79
2021/12/26 05:28:03;;;;;;;43.53;32.00;;;2.70;90.20;;;;;;5015273;28;20050;-79
2021/12/26 05:30:29;;;;;;;44.05;29.67;;;2.70;90.30;;;;;;5023313;28;20045;-88
2021/12/26 05:32:55;;;;;;;40.45;28.17;;;2.80;90.30;;;;;;5012867;28;20026;-85
2021/12/26 05:35:21;;;;;;;41.72;28.80;;;2.80;90.40;;;;;;5016790;28;20035;-88
2021/12/26 05:37:47;;;;;;;42.55;27.48;;;2.80;90.40;;;;;;5033976;28;20098;-84
2021/12/26 05:40:14;;;;;;;38.65;26.02;;;2.80;90.40;;;;;;5017563;28;20038;-78
2021/12/26 05:42:40;;;;;;;38.40;26.17;;;2.80;90.50;;;;;;5032610;28;20014;-82
2021/12/26 05:45:07;;;;;;;41.35;26.10;;;2.80;90.30;;;;;;5013476;28;20044;-87
2021/12/26 05:47:33;;;;;;;42.53;25.73;;;2.80;90.30;;;;;;5032080;28;20014;-88
2021/12/26 05:50:00;;;;;;;43.67;27.83;;;2.80;90.30;;;;;;5019655;28;20030;-87
2021/12/26 05:52:26;;;;;;;37.95;24.52;;;2.90;90.30;;;;;;5016132;28;20053;-79
2021/12/26 05:54:52;;;;;;;37.75;24.70;;;2.90;90.40;;;;;;5018141;28;20010;-88
2021/12/26 05:57:18;;;;;;;42.85;27.17;;;2.90;90.20;;;;;;5019407;28;20078;-86
2021/12/26 05:59:44;;;;;;;39.78;26.85;;;2.90;90.10;;;;;;5015480;28;20038;-88
2021/12/26 06:02:10;;;;;;;40.92;27.15;;;2.90;90.10;;;;;;5017026;28;20021;-87
2021/12/26 06:04:37;;;;;;;40.08;25.00;;;2.90;90.10;;;;;;5023733;28;20041;-83
2021/12/26 06:07:03;;;;;;;41.35;28.50;;;3.00;90.00;;;;;;5019591;28;20041;-89
2021/12/26 06:09:29;;;;;;;39.25;25.52;;;2.90;90.10;;;;;;5016630;28;20010;-87
2021/12/26 06:11:54;;;;;;;41.35;26.50;;;3.00;90.10;;;;;;5021161;28;20027;-87
2021/12/26 06:14:20;;;;;;;41.95;26.70;;;3.00;90.20;;;;;;5022523;28;21398;-85
2021/12/26 06:16:46;;;;;;;42.30;26.60;;;3.00;90.10;;;;;;5026817;28;20030;-87
2021/12/26 06:19:12;;;;;;;41.67;27.33;;;3.00;90.00;;;;;;5026328;28;20022;-82
2021/12/26 06:21:39;;;;;;;41.58;26.63;;;3.00;90.00;;;;;;5044952;28;20029;-85
2021/12/26 06:24:05;;;;;;;38.50;26.83;;;3.00;90.20;;;;;;5017105;28;20026;-87
2021/12/26 06:26:32;;;;;;;45.33;28.48;;;3.00;90.30;;;;;;5023177;28;20014;-87
2021/12/26 06:28:57;;;;;;;41.33;27.52;;;3.00;90.30;;;;;;5024508;28;20018;-89
2021/12/26 06:31:23;;;;;;;41.85;27.58;;;3.10;90.20;;;;;;5020500;28;20010;-78
2021/12/26 06:33:49;;;;;;;41.72;27.05;;;3.10;90.20;;;;;;5027499;28;20042;-79
2021/12/26 06:36:16;;;;;;;43.55;29.10;;;3.10;90.10;;;;;;5023101;28;20019;-86
2021/12/26 06:38:43;;;;;;;41.42;27.67;;;3.10;90.10;;;;;;5015974;28;20302;-87
2021/12/26 06:41:09;;;;;;;46.22;28.10;;;3.00;90.20;;;;;;5020019;28;20026;-85
2021/12/26 06:43:37;;;;;;;43.15;27.52;;;3.10;90.30;;;;;;5030079;28;20025;-81
2021/12/26 06:46:03;;;;;;;41.88;26.98;;;3.10;90.30;;;;;;5025598;28;20018;-81
2021/12/26 06:48:29;;;;;;;41.28;27.35;;;3.10;90.20;;;;;;5017442;28;20037;-85
2021/12/26 06:50:54;;;;;;;40.58;28.17;;;3.10;90.20;;;;;;5036588;28;20029;-88
2021/12/26 06:53:21;;;;;;;44.67;29.35;;;3.10;90.30;;;;;;5015242;28;20414;-87
2021/12/26 06:55:47;;;;;;;44.58;28.05;;;3.00;90.40;;;;;;5029740;28;20049;-79
2021/12/26 06:58:14;;;;;;;46.40;30.27;;;3.10;90.50;;;;;;5038044;28;20022;-85
2021/12/26 07:00:40;;;;;;;43.50;27.83;;;3.10;90.50;;;;;;5037505;28;20022;-82
2021/12/26 07:03:06;;;;;;;43.45;28.38;;;3.10;90.60;;;;;;5020226;28;20029;-86
2021/12/26 07:05:32;;;;;;;42.58;28.90;;;3.10;90.40;;;;;;5024763;28;20082;-78
2021/12/26 07:07:58;;;;;;;46.75;29.65;;;3.10;90.40;;;;;;5023752;28;20041;-82
2021/12/26 07:10:24;;;;;;;48.28;28.70;;;3.10;90.40;;;;;;5025837;28;20045;-80
2021/12/26 07:12:49;;;;;;;43.05;29.05;;;3.10;90.50;;;;;;5023182;28;20081;-83
2021/12/26 07:15:16;;;;;;;44.50;27.42;;;3.10;90.50;;;;;;5024685;28;20041;-85
2021/12/26 07:17:42;;;;;;;42.50;27.88;;;3.20;90.50;;;;;;5019055;28;20033;-87
2021/12/26 07:20:10;;;;;;;41.10;26.75;;;3.10;90.50;;;;;;5020269;28;20018;-80
2021/12/26 07:22:36;;;;;;;47.47;30.02;;;3.20;90.60;;;;;;5017911;28;20019;-88
2021/12/26 07:25:04;;;;;;;44.13;28.50;;;3.20;90.50;;;;;;5018682;28;20022;-80
2021/12/26 07:27:29;;;;;;;44.08;28.98;;;3.20;90.40;;;;;;5020020;28;20010;-85
2021/12/26 07:29:58;;;;;;;47.00;29.95;;;3.20;90.50;;;;;;5045134;28;20078;-78
2021/12/26 07:32:25;;;;;;;45.17;29.63;;;3.20;90.50;;;;;;5023805;28;20014;-82
2021/12/26 07:34:51;;;;;;;43.40;29.10;;;3.20;90.50;;;;;;5016554;28;20018;-85
2021/12/26 07:37:17;;;;;;;48.08;29.13;;;3.20;90.70;;;;;;5020054;28;20022;-85
2021/12/26 07:39:43;;;;;;;45.67;29.67;;;3.20;90.60;;;;;;5019764;28;20065;-84
2021/12/26 07:42:10;;;;;;;41.38;28.40;;;3.20;90.60;;;;;;5018606;28;20030;-81
2021/12/26 07:44:36;;;;;;;42.75;29.15;;;3.20;90.70;;;;;;5028692;28;20026;-89
2021/12/26 07:47:03;;;;;;;43.83;29.65;;;3.30;90.70;;;;;;5018325;28;20023;-82
2021/12/26 07:49:29;;;;;;;45.65;29.83;;;3.30;90.70;;;;;;5021690;28;20010;-79
2021/12/26 07:51:56;;;;;;;45.25;29.58;;;3.30;90.60;;;;;;5024703;28;20021;-79
2021/12/26 07:54:23;;;;;;;45.83;29.30;;;3.30;90.70;;;;;;5019542;28;20015;-82
2021/12/26 07:56:50;;;;;;;46.15;28.70;;;3.30;90.60;;;;;;5025173;28;20022;-88
2021/12/26 07:59:16;;;;;;;50.17;31.30;;;3.40;90.60;;;;;;5014039;28;20022;-80
2021/12/26 08:01:42;;;;;;;56.55;37.17;;;3.40;90.60;;;;;;5015822;28;20042;-80
2021/12/26 08:04:09;;;;;;;47.08;32.22;;;3.40;90.70;;;;;;5020157;28;20053;-84
2021/12/26 08:06:35;;;;;;;51.60;34.55;;;3.40;90.70;;;;;;5021744;28;20037;-89
2021/12/26 08:09:01;;;;;;;48.13;33.22;;;3.40;90.80;;;;;;5018063;28;20022;-82
2021/12/26 08:11:27;;;;;;;51.88;31.65;;;3.40;90.90;;;;;;5015416;28;20010;-87
2021/12/26 08:13:52;;;;;;;47.35;32.50;;;3.40;90.90;;;;;;5025636;28;20078;-81
2021/12/26 08:16:18;;;;;;;46.15;30.83;;;3.40;90.90;;;;;;5023153;28;20077;-78
2021/12/26 08:18:44;;;;;;;49.97;32.03;;;3.40;90.80;;;;;;5015539;28;20027;-80
2021/12/26 08:21:10;;;;;;;46.53;31.00;;;3.40;90.90;;;;;;5021184;28;20026;-88
2021/12/26 08:23:36;;;;;;;53.25;38.83;;;3.30;90.90;;;;;;5014711;28;20038;-87
2021/12/26 08:26:03;;;;;;;50.63;34.17;;;3.40;90.90;;;;;;5015806;28;20078;-80
2021/12/26 08:28:29;;;;;;;44.63;34.08;;;3.40;91.00;;;;;;5030362;28;20010;-79
2021/12/26 08:30:54;;;;;;;50.40;34.72;;;3.40;91.00;;;;;;5021032;28;20096;-80
2021/12/26 08:33:20;;;;;;;47.83;33.72;;;3.40;91.00;;;;;;5021520;28;20026;-83
2021/12/26 08:35:47;;;;;;;45.67;30.92;;;3.40;91.00;;;;;;5015534;28;20036;-85
2021/12/26 08:38:15;;;;;;;47.60;32.03;;;3.50;91.10;;;;;;5021781;28;20053;-86
2021/12/26 08:40:42;;;;;;;51.33;34.55;;;3.50;91.10;;;;;;5029020;28;20070;-79
2021/12/26 08:43:07;;;;;;;54.10;35.45;;;3.50;91.20;;;;;;5018295;28;20061;-86
2021/12/26 08:45:34;;;;;;;51.45;36.15;;;3.50;91.30;;;;;;5028538;28;20007;-86
2021/12/26 08:48:01;;;;;;;49.97;33.40;;;3.60;91.40;;;;;;5015470;28;20034;-80
2021/12/26 08:50:27;;;;;;;55.65;33.15;;;3.60;91.40;;;;;;5023887;28;20018;-78
2021/12/26 08:52:54;;;;;;;53.85;36.20;;;3.70;91.40;;;;;;5023776;28;20050;-84
2021/12/26 08:55:21;;;;;;;54.05;35.75;;;3.60;91.50;;;;;;5023774;28;20014;-85
2021/12/26 08:57:47;;;;;;;53.80;34.00;;;3.70;91.50;;;;;;5014652;28;20049;-86
2021/12/26 09:00:14;;;;;;;62.05;38.15;;;3.70;91.50;;;;;;5016825;28;20033;-89
2021/12/26 09:02:40;;;;;;;60.97;37.45;;;3.80;91.60;;;;;;5015756;28;20077;-88
2021/12/26 09:05:07;;;;;;;58.60;36.88;;;3.80;91.60;;;;;;5016451;28;20030;-88
2021/12/26 09:07:32;;;;;;;57.08;33.88;;;3.80;91.70;;;;;;5019448;28;20019;-80
2021/12/26 09:09:59;;;;;;;48.90;31.98;;;3.90;91.80;;;;;;5017767;28;20030;-87
2021/12/26 09:12:24;;;;;;;52.13;33.00;;;3.90;91.70;;;;;;5014000;28;20018;-89
2021/12/26 09:14:50;;;;;;;52.35;35.67;;;4.00;91.80;;;;;;5032534;28;20034;-80
2021/12/26 09:17:16;;;;;;;54.35;35.58;;;4.00;91.80;;;;;;5014910;28;20042;-78
2021/12/26 09:19:42;;;;;;;53.70;34.92;;;4.10;91.80;;;;;;5018566;28;20024;-78
2021/12/26 09:22:09;;;;;;;54.08;35.15;;;4.10;91.80;;;;;;5006937;28;20043;-76
2021/12/26 09:24:36;;;;;;;53.92;37.92;;;4.10;91.80;;;;;;5010657;28;20048;-78
2021/12/26 09:27:02;;;;;;;61.47;42.25;;;4.20;91.80;;;;;;5012591;28;20089;-76
2021/12/26 09:29:28;;;;;;;59.75;41.25;;;4.20;91.70;;;;;;5016814;28;20030;-74
2021/12/26 09:31:54;;;;;;;56.35;39.40;;;4.30;91.80;;;;;;5016627;28;20026;-77
2021/12/26 09:34:20;;;;;;;57.50;40.28;;;4.30;91.70;;;;;;5012220;28;20922;-78
2021/12/26 09:36:47;;;;;;;53.42;37.78;;;4.40;91.70;;;;;;5014796;28;20026;-78
2021/12/26 09:39:13;;;;;;;49.25;36.10;;;4.40;91.50;;;;;;5007124;28;20053;-76
2021/12/26 09:41:39;;;;;;;47.83;33.42;;;4.50;91.50;;;;;;5004750;28;20027;-74
2021/12/26 09:44:06;;;;;;;64.57;49.17;;;4.50;91.30;;;;;;5008339;28;20050;-77
2021/12/26 09:46:34;;;;;;;60.75;48.55;;;4.60;91.10;;;;;;5009300;28;20127;-77
2021/12/26 09:48:59;;;;;;;51.40;38.58;;;4.60;91.00;;;;;;5013375;28;20046;-75
2021/12/26 09:51:26;;;;;;;44.90;35.40;;;4.60;91.00;;;;;;5034270;28;20356;-77
2021/12/26 09:53:51;;;;;;;50.88;40.92;;;4.70;91.10;;;;;;5002599;28;20366;-75
2021/12/26 09:56:18;;;;;;;43.03;31.73;;;4.70;90.90;;;;;;5008750;28;20038;-76
2021/12/26 09:58:56;;;;;;;52.35;44.92;;;4.80;90.80;;;;;;5029970;28;20042;-73
2021/12/26 10:01:35;;;;;;;42.67;31.30;;;4.80;90.70;;;;;;5018417;28;20037;-75
2021/12/26 10:04:26;;;;;;;41.55;29.60;;;4.90;90.50;;;;;;5036895;28;20054;-75
2021/12/26 10:07:00;;;;;;;40.22;28.52;;;4.90;90.50;;;;;;5009999;28;20034;-73
2021/12/26 10:09:27;;;;;;;40.17;31.02;;;5.00;90.40;;;;;;5007997;28;20062;-73
2021/12/26 10:11:54;;;;;;;42.05;29.35;;;5.00;90.10;;;;;;5011304;28;20030;-76
2021/12/26 10:14:25;;;;;;;42.60;30.80;;;5.10;90.20;;;;;;5011709;28;20030;-76
2021/12/26 10:16:58;;;;;;;40.33;30.27;;;5.10;90.30;;;;;;5016515;28;20026;-76
2021/12/26 10:19:24;;;;;;;41.03;28.08;;;5.10;90.20;;;;;;5035559;28;20040;-77
2021/12/26 10:21:53;;;;;;;37.42;30.20;;;5.10;90.20;;;;;;5019380;28;20058;-77
2021/12/26 10:24:23;;;;;;;36.47;27.23;;;5.20;90.20;;;;;;5010784;28;20262;-77
2021/12/26 10:26:54;;;;;;;39.50;32.00;;;5.20;90.20;;;;;;5026025;28;20081;-76
2021/12/26 10:29:33;;;;;;;59.63;53.17;;;5.30;90.30;;;;;;5020536;28;20015;-75
2021/12/26 10:32:28;;;;;;;50.63;40.50;;;5.30;90.30;;;;;;5016311;28;20069;-76
2021/12/26 10:35:01;;;;;;;56.00;49.83;;;5.40;90.30;;;;;;5012723;28;20029;-77
2021/12/26 10:37:32;;;;;;;61.65;52.55;;;5.40;90.40;;;;;;5017033;28;20030;-76
2021/12/26 10:40:06;;;;;;;76.97;68.70;;;5.40;90.50;;;;;;5012430;28;20066;-76
2021/12/26 10:42:35;;;;;;;44.67;35.97;;;5.40;90.50;;;;;;5015530;28;20026;-77
2021/12/26 10:45:07;;;;;;;55.72;49.13;;;5.40;90.70;;;;;;5015873;28;20401;-76
2021/12/26 10:47:35;;;;;;;43.60;35.05;;;5.40;90.60;;;;;;5010310;28;20019;-76
2021/12/26 10:50:00;;;;;;;47.17;40.28;;;5.40;90.80;;;;;;5013133;28;20073;-73
2021/12/26 10:52:32;;;;;;;41.15;31.40;;;5.40;90.90;;;;;;5016888;28;20026;-74
2021/12/26 10:55:05;;;;;;;38.05;28.25;;;5.40;90.90;;;;;;5026963;28;20118;-76
2021/12/26 10:57:35;;;;;;;38.50;29.77;;;5.30;91.00;;;;;;5015283;28;20015;-74
2021/12/26 11:00:09;;;;;;;37.17;29.20;;;5.30;91.00;;;;;;5012895;28;20034;-75
2021/12/26 11:02:37;;;;;;;39.95;30.02;;;5.30;91.20;;;;;;5032575;28;20046;-74
2021/12/26 11:05:09;;;;;;;39.63;30.55;;;5.30;91.30;;;;;;5010615;28;20034;-74
2021/12/26 11:07:43;;;;;;;57.55;38.20;;;5.30;91.40;;;;;;5017706;28;20014;-72
2021/12/26 11:10:34;;;;;;;63.55;44.25;;;5.40;91.40;;;;;;5015296;28;20029;-71
2021/12/26 11:13:02;;;;;;;96.95;58.42;;;5.40;91.50;;;;;;5011390;28;20045;-73
2021/12/26 11:15:34;;;;;;;119.43;81.20;;;5.50;91.60;;;;;;5015792;28;20056;-72
2021/12/26 11:18:04;;;;;;;49.72;38.05;;;5.50;91.70;;;;;;5015476;28;20018;-75
2021/12/26 11:20:40;;;;;;;41.08;32.40;;;5.50;91.70;;;;;;5015838;28;20022;-78
2021/12/26 11:23:10;;;;;;;41.40;31.23;;;5.60;91.70;;;;;;5028876;28;20047;-73
2021/12/26 11:25:42;;;;;;;48.83;37.20;;;5.60;91.60;;;;;;5017073;28;20009;-73
2021/12/26 11:28:11;;;;;;;47.10;38.55;;;5.60;91.50;;;;;;5011969;28;20027;-74
2021/12/26 11:30:37;;;;;;;46.30;37.72;;;5.60;91.60;;;;;;5012729;28;20022;-73
2021/12/26 11:33:03;;;;;;;45.95;33.30;;;5.60;91.50;;;;;;5009978;28;20026;-74
2021/12/26 11:35:31;;;;;;;37.00;28.55;;;5.60;91.60;;;;;;5021251;28;20019;-75
2021/12/26 11:37:58;;;;;;;38.80;31.08;;;5.60;91.60;;;;;;5011356;28;20010;-72
2021/12/26 11:40:24;;;;;;;38.88;30.75;;;5.60;91.70;;;;;;5037911;28;20013;-74
2021/12/26 11:43:26;;;;;;;44.45;33.88;;;5.70;91.80;;;;;;5026072;28;20014;-75
2021/12/26 11:46:16;;;;;;;45.38;34.03;;;5.70;91.90;;;;;;5014623;28;20048;-75
2021/12/26 11:49:21;;;;;;;48.72;34.78;;;5.70;91.90;;;;;;4992523;28;20023;-75
2021/12/26 11:52:09;;;;;;;48.17;36.25;;;5.70;92.00;;;;;;4992696;28;20058;-75
2021/12/26 11:55:01;;;;;;;55.70;42.50;;;5.80;92.00;;;;;;4990663;28;20226;-75
2021/12/26 11:57:51;;;;;;;55.78;42.00;;;5.70;91.90;;;;;;5024067;28;20018;-75
2021/12/26 12:00:53;;;;;;;48.00;35.75;;;5.90;92.10;;;;;;4974697;28;20026;-75
2021/12/26 12:04:17;;;;;;;;;;;;;;;;;;;;;
2021/12/26 12:07:03;;;;;;;49.38;37.92;;;5.90;92.00;;;;;;4973557;28;20025;-76
2021/12/26 12:12:22;;;;;;;44.20;34.42;;;6.00;92.10;;;;;;4969797;28;20257;-77
2021/12/26 12:14:52;;;;;;;52.63;46.72;;;6.00;92.10;;;;;;4989847;28;20058;-72
2021/12/26 12:17:32;;;;;;;53.30;46.63;;;6.00;92.10;;;;;;4991263;28;20033;-76
2021/12/26 12:20:18;;;;;;;54.35;47.90;;;6.10;92.20;;;;;;5009389;28;20039;-77
2021/12/26 12:26:36;;;;;;;45.25;35.95;;;6.10;92.00;;;;;;4983981;28;20039;-74
2021/12/26 12:29:01;;;;;;;50.53;39.25;;;6.10;92.10;;;;;;5022498;28;20022;-75
2021/12/26 12:31:27;;;;;;;45.80;36.58;;;6.10;92.10;;;;;;4998662;28;20019;-74
2021/12/26 12:34:05;;;;;;;47.47;37.90;;;6.20;92.10;;;;;;5015209;28;20018;-74
2021/12/26 12:36:34;;;;;;;52.45;38.28;;;6.20;92.10;;;;;;5002776;28;20050;-75
2021/12/26 12:39:14;;;;;;;47.47;33.75;;;6.20;92.10;;;;;;4999921;28;20039;-76
2021/12/26 12:41:43;;;;;;;46.15;34.40;;;6.20;92.00;;;;;;5004330;28;20030;-76
2021/12/26 12:44:29;;;;;;;46.60;33.63;;;6.30;92.10;;;;;;4998016;28;20027;-74
2021/12/26 12:47:07;;;;;;;45.42;33.92;;;6.30;92.30;;;;;;5004617;28;20045;-75
2021/12/26 12:49:49;;;;;;;44.05;33.20;;;6.30;92.30;;;;;;4997198;28;20023;-72
2021/12/26 12:52:50;;;;;;;43.35;32.13;;;6.40;92.30;;;;;;5011514;28;20036;-71
2021/12/26 12:55:50;;;;;;;42.42;32.35;;;6.40;92.30;;;;;;5011129;28;20026;-73
2021/12/26 12:58:31;;;;;;;43.67;33.80;;;6.40;92.30;;;;;;5012176;28;20212;-73
2021/12/26 13:00:57;;;;;;;42.10;32.40;;;6.40;92.20;;;;;;5018422;28;20045;-73